Time;durP1;ratioP1;P1;durP2;ratioP2;P2;SDS_P1;SDS_P2;PMS_P1;PMS_P2;Temp;Humidity;BMP_temperature;BMP_pressure;BME280_temperature;BME280_humidity;BME280_pressure;Samples;Min_cycle;Max_cycle;Signal;HPM_P1;HPM_P2
2022/12/31 00:01:26;;;;;;;0.93;0.40;;;23.00;55.20;;;;;;5039946;28;20037;-52
2022/12/31 00:03:53;;;;;;;3.97;0.10;;;23.00;55.30;;;;;;5043439;28;20040;-46
2022/12/31 00:06:23;;;;;;;4.68;0.10;;;22.90;55.30;;;;;;5037254;28;20045;-47
2022/12/31 00:08:51;;;;;;;1.38;0.00;;;22.90;55.40;;;;;;5034427;28;20473;-47
2022/12/31 00:11:20;;;;;;;5.50;0.10;;;22.80;55.40;;;;;;5036508;28;20045;-44
2022/12/31 00:13:48;;;;;;;0.85;0.10;;;22.80;55.40;;;;;;5037923;28;20037;-49
2022/12/31 00:16:18;;;;;;;3.55;0.10;;;22.80;55.50;;;;;;5043612;28;20496;-45
2022/12/31 00:18:47;;;;;;;1.95;0.10;;;22.80;55.60;;;;;;5037847;28;20175;-49
2022/12/31 00:21:15;;;;;;;2.67;0.25;;;22.70;55.60;;;;;;5038157;28;20128;-48
2022/12/31 00:23:43;;;;;;;3.40;0.00;;;22.70;55.60;;;;;;5032901;28;20119;-44
2022/12/31 00:26:12;;;;;;;4.75;0.00;;;22.70;55.70;;;;;;5034305;28;20056;-45
2022/12/31 00:28:41;;;;;;;4.68;0.10;;;22.70;55.70;;;;;;5035774;28;20041;-45
2022/12/31 00:31:11;;;;;;;3.90;0.10;;;22.60;55.70;;;;;;5032434;28;20568;-47
2022/12/31 00:33:39;;;;;;;1.15;0.10;;;22.60;55.80;;;;;;5037552;28;20567;-45
2022/12/31 00:36:09;;;;;;;3.45;1.00;;;22.60;56.40;;;;;;5044256;28;20044;-46
2022/12/31 00:38:37;;;;;;;1.90;0.10;;;22.60;55.80;;;;;;5044338;28;20141;-44
2022/12/31 00:41:05;;;;;;;2.10;0.13;;;22.50;55.80;;;;;;5042605;28;20041;-46
2022/12/31 00:43:32;;;;;;;1.85;0.10;;;22.50;56.50;;;;;;5044645;28;20053;-46
2022/12/31 00:46:02;;;;;;;1.75;0.10;;;22.50;56.00;;;;;;5044292;28;20467;-49
2022/12/31 00:48:29;;;;;;;0.88;0.10;;;22.50;56.00;;;;;;5044477;28;20072;-46
2022/12/31 00:50:57;;;;;;;2.90;0.15;;;22.50;56.00;;;;;;5043064;28;20059;-45
2022/12/31 00:53:25;;;;;;;0.88;0.00;;;22.50;56.10;;;;;;5044153;28;20041;-47
2022/12/31 00:55:52;;;;;;;2.10;0.05;;;22.40;56.00;;;;;;5044424;28;20049;-44
2022/12/31 00:58:19;;;;;;;0.75;0.00;;;22.40;56.10;;;;;;5044492;28;20457;-48
2022/12/31 01:00:46;;;;;;;1.17;0.08;;;22.40;56.10;;;;;;5059119;28;20041;-45
2022/12/31 01:03:14;;;;;;;3.92;0.00;;;22.40;56.20;;;;;;5044392;28;20068;-48
2022/12/31 01:05:41;;;;;;;0.88;0.03;;;22.40;56.20;;;;;;5044583;28;20428;-48
2022/12/31 01:08:08;;;;;;;0.77;0.00;;;22.30;56.20;;;;;;5044257;28;20163;-48
2022/12/31 01:13:20;;;;;;;0.60;0.00;;;22.30;56.20;;;;;;5047595;28;20048;-50
2022/12/31 01:15:47;;;;;;;0.20;0.10;;;22.30;56.30;;;;;;5047906;28;20101;-48
2022/12/31 01:18:15;;;;;;;1.23;0.10;;;22.30;56.40;;;;;;5048245;28;20116;-46
2022/12/31 01:20:44;;;;;;;0.50;0.00;;;22.30;56.50;;;;;;5047997;28;20877;-49
2022/12/31 01:23:11;;;;;;;1.95;0.00;;;22.30;56.50;;;;;;5047683;28;20057;-45
2022/12/31 01:25:40;;;;;;;0.50;0.00;;;22.30;56.60;;;;;;5047872;28;20053;-45
2022/12/31 01:28:08;;;;;;;0.32;0.20;;;22.20;56.70;;;;;;5047657;28;20084;-47
2022/12/31 01:30:38;;;;;;;0.85;0.20;;;22.20;56.80;;;;;;5039481;28;20132;-46
2022/12/31 01:33:05;;;;;;;0.35;0.00;;;22.20;56.90;;;;;;5028146;28;20053;-51
2022/12/31 01:35:35;;;;;;;2.35;0.10;;;22.20;56.90;;;;;;5028063;28;20717;-46
2022/12/31 01:38:02;;;;;;;2.88;0.47;;;22.20;57.00;;;;;;5033288;28;20722;-45
2022/12/31 01:40:30;;;;;;;1.88;0.10;;;22.10;57.00;;;;;;5047275;28;20041;-45
2022/12/31 01:42:58;;;;;;;0.70;0.00;;;22.10;57.00;;;;;;5047527;28;20111;-50
2022/12/31 01:45:25;;;;;;;1.25;0.00;;;22.10;57.20;;;;;;5047657;28;20041;-50
2022/12/31 01:47:56;;;;;;;1.55;0.10;;;22.10;57.30;;;;;;5047825;28;20080;-50
2022/12/31 01:50:28;;;;;;;1.55;0.08;;;22.10;57.30;;;;;;5047822;28;20727;-47
2022/12/31 01:52:58;;;;;;;1.17;0.00;;;22.10;57.40;;;;;;5030088;28;20052;-51
2022/12/31 01:55:30;;;;;;;1.88;0.10;;;22.10;57.60;;;;;;5027662;28;20072;-45
2022/12/31 01:58:01;;;;;;;0.15;0.00;;;22.10;57.60;;;;;;5027850;28;20129;-47
2022/12/31 02:00:28;;;;;;;1.25;0.00;;;22.10;57.80;;;;;;5027379;28;20037;-47
2022/12/31 02:02:55;;;;;;;1.70;0.03;;;22.10;57.80;;;;;;5027625;28;20052;-46
2022/12/31 02:05:26;;;;;;;4.82;0.05;;;22.10;58.50;;;;;;5027425;28;20569;-46
2022/12/31 02:07:58;;;;;;;2.65;0.10;;;22.00;57.90;;;;;;5027019;28;20080;-46
2022/12/31 02:10:25;;;;;;;2.53;0.30;;;22.00;57.90;;;;;;5027328;28;20118;-46
2022/12/31 02:12:53;;;;;;;1.13;0.55;;;22.10;58.00;;;;;;5036654;28;20045;-46
2022/12/31 02:15:23;;;;;;;0.55;0.08;;;22.00;58.00;;;;;;5047212;28;20080;-47
2022/12/31 02:18:01;;;;;;;3.17;0.00;;;22.00;58.00;;;;;;5046920;28;20110;-47
2022/12/31 02:20:53;;;;;;;1.05;0.20;;;22.00;58.10;;;;;;5026605;28;20048;-46
2022/12/31 02:23:55;;;;;;;0.50;0.05;;;22.00;58.10;;;;;;5027106;28;20084;-48
2022/12/31 02:26:43;;;;;;;0.00;0.00;;;22.00;58.10;;;;;;5027888;28;20127;-47
2022/12/31 02:29:38;;;;;;;2.35;0.00;;;22.00;58.10;;;;;;5047216;28;20045;-46
2022/12/31 02:32:13;;;;;;;0.10;0.00;;;22.00;58.20;;;;;;5038797;28;20049;-51
2022/12/31 02:34:47;;;;;;;1.60;0.00;;;22.00;58.30;;;;;;5046848;28;20127;-46
2022/12/31 02:37:16;;;;;;;0.05;0.00;;;22.00;58.30;;;;;;5046535;28;20079;-47
2022/12/31 02:39:44;;;;;;;0.10;0.00;;;22.00;58.30;;;;;;5047161;28;20659;-46
2022/12/31 02:42:12;;;;;;;3.33;0.15;;;22.00;58.40;;;;;;5046821;28;20037;-48
2022/12/31 02:44:41;;;;;;;0.30;0.00;;;22.00;58.30;;;;;;5046767;28;20051;-47
2022/12/31 02:47:20;;;;;;;1.45;0.30;;;22.00;58.40;;;;;;5046385;28;20045;-47
2022/12/31 02:50:08;;;;;;;2.22;0.10;;;22.00;58.40;;;;;;5046479;28;20080;-45
2022/12/31 02:52:46;;;;;;;0.50;0.10;;;22.00;58.40;;;;;;5026339;28;20060;-48
2022/12/31 02:55:19;;;;;;;0.90;0.00;;;22.00;58.50;;;;;;5026424;28;20509;-49
2022/12/31 02:57:53;;;;;;;2.13;0.00;;;22.00;58.50;;;;;;5026521;28;20046;-49
2022/12/31 03:03:07;;;;;;;1.55;0.00;;;22.00;58.60;;;;;;5026410;28;20038;-49
2022/12/31 03:05:39;;;;;;;0.85;0.65;;;22.00;58.60;;;;;;5026252;28;20053;-49
2022/12/31 03:08:06;;;;;;;0.38;0.20;;;22.00;58.60;;;;;;5026146;28;20045;-47
2022/12/31 03:10:33;;;;;;;0.88;0.10;;;22.00;58.70;;;;;;5026479;28;20508;-47
2022/12/31 03:12:59;;;;;;;0.32;0.03;;;22.00;58.60;;;;;;5036274;28;20045;-45
2022/12/31 03:15:29;;;;;;;0.98;0.00;;;22.00;58.60;;;;;;5046144;28;20068;-45
2022/12/31 03:18:01;;;;;;;3.03;0.00;;;22.00;58.70;;;;;;5045961;28;20069;-46
2022/12/31 03:23:20;;;;;;;0.55;0.00;;;22.00;58.70;;;;;;5025883;28;20080;-44
2022/12/31 03:25:47;;;;;;;0.35;0.08;;;22.00;58.70;;;;;;5031890;28;20170;-44
2022/12/31 03:28:16;;;;;;;1.65;0.10;;;22.00;58.60;;;;;;5045763;28;20041;-46
2022/12/31 03:30:45;;;;;;;0.38;0.10;;;22.00;58.60;;;;;;5045676;28;20563;-44
2022/12/31 03:33:13;;;;;;;0.20;0.08;;;22.00;58.60;;;;;;5045312;28;20057;-46
2022/12/31 03:35:45;;;;;;;2.03;0.22;;;22.00;58.60;;;;;;5045250;28;20114;-49
2022/12/31 03:38:14;;;;;;;0.22;0.00;;;22.00;58.50;;;;;;5044969;28;20128;-45
2022/12/31 03:40:43;;;;;;;0.25;0.25;;;21.90;58.40;;;;;;5045445;28;20083;-48
2022/12/31 03:43:11;;;;;;;0.13;0.13;;;22.00;59.10;;;;;;5045488;28;20076;-44
2022/12/31 03:45:39;;;;;;;0.40;0.15;;;22.00;58.50;;;;;;5045380;28;20127;-46
2022/12/31 03:48:08;;;;;;;1.20;0.20;;;21.90;58.40;;;;;;5044193;28;20083;-47
2022/12/31 03:50:36;;;;;;;0.77;0.00;;;22.00;58.40;;;;;;5044038;28;20045;-46
2022/12/31 03:53:05;;;;;;;2.30;0.00;;;21.90;58.40;;;;;;5045418;28;20142;-44
2022/12/31 03:55:32;;;;;;;0.85;0.10;;;21.90;58.40;;;;;;5045287;28;20044;-49
2022/12/31 03:57:59;;;;;;;0.10;0.05;;;21.90;59.00;;;;;;5045292;28;20049;-50
2022/12/31 04:00:28;;;;;;;0.60;0.25;;;21.90;58.40;;;;;;5045665;28;20067;-47
2022/12/31 04:02:55;;;;;;;0.17;0.00;;;21.90;58.40;;;;;;5045145;28;20091;-50
2022/12/31 04:05:23;;;;;;;0.32;0.00;;;21.90;58.40;;;;;;5045345;28;20052;-46
2022/12/31 04:07:50;;;;;;;2.60;0.00;;;21.90;58.40;;;;;;5044767;28;20041;-48
2022/12/31 04:10:20;;;;;;;1.65;0.28;;;21.90;58.40;;;;;;5043909;28;20041;-43
2022/12/31 04:12:47;;;;;;;1.23;0.10;;;21.90;58.50;;;;;;5044883;28;20045;-47
2022/12/31 04:15:17;;;;;;;1.15;0.10;;;21.80;58.40;;;;;;5044825;28;20045;-47
2022/12/31 04:17:44;;;;;;;1.85;0.10;;;21.90;59.10;;;;;;5044539;28;20045;-45
2022/12/31 04:20:11;;;;;;;0.85;0.15;;;21.90;58.50;;;;;;5045292;28;20040;-46
2022/12/31 04:22:38;;;;;;;4.28;0.00;;;21.90;58.50;;;;;;5044783;28;20044;-45
2022/12/31 04:25:09;;;;;;;1.60;0.10;;;21.90;58.50;;;;;;5043096;28;20480;-47
2022/12/31 04:27:39;;;;;;;1.50;0.03;;;21.90;58.40;;;;;;5044847;28;20045;-44
2022/12/31 04:30:10;;;;;;;4.82;0.35;;;21.90;58.40;;;;;;5044858;28;20048;-48
2022/12/31 04:32:37;;;;;;;1.20;0.08;;;21.90;58.40;;;;;;5044221;28;20052;-44
2022/12/31 04:35:05;;;;;;;2.47;0.85;;;21.90;58.40;;;;;;5044740;28;20049;-47
2022/12/31 04:37:32;;;;;;;0.40;0.00;;;21.90;58.40;;;;;;5044931;28;20128;-46
2022/12/31 04:39:59;;;;;;;1.20;0.05;;;21.80;58.40;;;;;;5044592;28;20136;-46
2022/12/31 04:42:26;;;;;;;0.30;0.00;;;21.90;58.40;;;;;;5044707;28;20084;-53
2022/12/31 04:44:54;;;;;;;0.63;0.10;;;21.80;58.40;;;;;;5044817;28;20630;-47
2022/12/31 04:47:21;;;;;;;1.25;0.10;;;21.80;58.40;;;;;;5046493;28;20072;-48
2022/12/31 04:49:49;;;;;;;1.63;0.10;;;21.90;58.40;;;;;;5049044;28;20041;-47
2022/12/31 04:52:16;;;;;;;1.00;0.00;;;21.80;58.40;;;;;;5049137;28;20127;-47
2022/12/31 04:54:43;;;;;;;0.77;0.00;;;21.80;58.60;;;;;;5048566;28;20067;-46
2022/12/31 04:57:10;;;;;;;1.05;0.10;;;21.80;58.30;;;;;;5048748;28;20122;-48
2022/12/31 04:59:37;;;;;;;0.95;0.10;;;21.80;58.20;;;;;;5048918;28;20535;-45
2022/12/31 05:02:05;;;;;;;1.48;0.10;;;21.80;58.20;;;;;;5047850;28;20045;-45
2022/12/31 05:04:32;;;;;;;0.73;0.00;;;21.90;58.30;;;;;;5048448;28;20961;-46
2022/12/31 05:06:59;;;;;;;1.00;0.10;;;21.80;58.20;;;;;;5048498;28;20049;-44
2022/12/31 05:09:27;;;;;;;1.00;0.13;;;21.80;58.20;;;;;;5048076;28;20040;-47
2022/12/31 05:11:54;;;;;;;4.68;0.15;;;21.80;58.20;;;;;;5048168;28;20052;-47
2022/12/31 05:14:21;;;;;;;0.08;0.00;;;21.80;58.10;;;;;;5048078;28;20045;-47
2022/12/31 05:16:48;;;;;;;0.17;0.00;;;21.80;58.10;;;;;;5047727;28;20088;-51
2022/12/31 05:19:16;;;;;;;0.20;0.10;;;21.80;58.00;;;;;;5047980;28;20036;-45
2022/12/31 05:22:27;;;;;;;0.40;0.10;;;21.90;58.10;;;;;;5047730;28;20587;-47
2022/12/31 05:24:32;;;;;;;1.92;0.10;;;21.80;58.00;;;;;;5047850;28;20068;-47
2022/12/31 05:26:59;;;;;;;2.17;0.10;;;21.80;58.00;;;;;;5046850;28;20037;-48
2022/12/31 05:29:26;;;;;;;1.23;0.10;;;21.80;57.90;;;;;;5046217;28;20041;-46
2022/12/31 05:31:53;;;;;;;0.08;0.00;;;21.80;57.90;;;;;;5046281;28;20520;-48
2022/12/31 05:34:22;;;;;;;0.35;0.10;;;21.80;57.90;;;;;;5046827;28;20143;-46
2022/12/31 05:36:49;;;;;;;1.65;0.08;;;21.80;57.90;;;;;;5045232;28;20041;-48
2022/12/31 05:39:16;;;;;;;2.22;0.10;;;21.80;57.90;;;;;;5046659;28;20047;-47
2022/12/31 05:41:43;;;;;;;2.00;0.85;;;21.80;57.90;;;;;;5046381;28;20068;-46
2022/12/31 05:44:10;;;;;;;1.10;0.10;;;21.80;57.90;;;;;;5044641;28;20576;-46
2022/12/31 05:46:37;;;;;;;0.85;0.10;;;21.80;57.90;;;;;;5042329;28;20119;-46
2022/12/31 05:49:05;;;;;;;5.63;0.52;;;21.80;57.90;;;;;;5045818;28;20699;-48
2022/12/31 05:51:33;;;;;;;0.77;0.10;;;21.80;57.80;;;;;;5044343;28;20047;-49
2022/12/31 05:54:00;;;;;;;0.68;0.20;;;21.90;57.90;;;;;;5046512;28;20068;-45
2022/12/31 05:56:27;;;;;;;1.23;0.10;;;21.80;57.80;;;;;;5046209;28;20589;-45
2022/12/31 05:58:54;;;;;;;4.05;0.03;;;21.80;57.80;;;;;;5045771;28;20053;-51
2022/12/31 06:01:21;;;;;;;0.08;0.00;;;21.80;57.80;;;;;;5046033;28;20079;-47
2022/12/31 06:03:48;;;;;;;1.95;0.20;;;21.80;57.80;;;;;;5046272;28;20049;-46
2022/12/31 06:06:15;;;;;;;0.95;0.10;;;21.80;57.80;;;;;;5046463;28;20055;-50
2022/12/31 06:08:44;;;;;;;1.65;0.10;;;21.80;57.80;;;;;;5046718;28;20424;-51
2022/12/31 06:11:11;;;;;;;3.22;0.30;;;21.80;57.80;;;;;;5044617;28;20412;-50
2022/12/31 06:13:38;;;;;;;2.67;0.10;;;21.80;57.80;;;;;;5045657;28;20059;-49
2022/12/31 06:16:06;;;;;;;0.38;0.38;;;21.80;57.80;;;;;;5046273;28;20047;-47
2022/12/31 06:18:33;;;;;;;0.30;0.10;;;21.80;57.80;;;;;;5046260;28;20053;-50
2022/12/31 06:21:00;;;;;;;0.75;0.08;;;21.80;57.70;;;;;;5046147;28;20040;-46
2022/12/31 06:23:27;;;;;;;1.20;0.50;;;21.80;57.70;;;;;;5044664;28;20120;-46
2022/12/31 06:25:56;;;;;;;2.05;0.20;;;21.80;57.70;;;;;;5006747;28;1128242;-47
2022/12/31 06:28:23;;;;;;;0.45;0.10;;;21.80;57.70;;;;;;5046689;28;20575;-48
2022/12/31 06:30:50;;;;;;;1.02;0.00;;;21.80;57.70;;;;;;5047145;28;20048;-47
2022/12/31 06:33:18;;;;;;;1.27;0.10;;;21.80;57.70;;;;;;5046464;28;20397;-49
2022/12/31 06:35:45;;;;;;;1.05;0.10;;;21.80;57.70;;;;;;5046872;28;20041;-47
2022/12/31 06:38:12;;;;;;;3.20;0.20;;;21.80;57.80;;;;;;5046756;28;20048;-48
2022/12/31 06:40:39;;;;;;;3.58;1.15;;;21.80;57.70;;;;;;5046776;28;20041;-48
2022/12/31 06:43:07;;;;;;;0.82;0.00;;;21.80;57.70;;;;;;5046101;28;20041;-51
2022/12/31 06:45:34;;;;;;;0.43;0.10;;;21.80;57.70;;;;;;5046623;28;20076;-46
2022/12/31 06:48:01;;;;;;;1.42;0.28;;;21.80;57.70;;;;;;5046355;28;20045;-47
2022/12/31 06:50:28;;;;;;;2.65;0.22;;;21.80;57.60;;;;;;5046548;28;20041;-46
2022/12/31 06:52:55;;;;;;;3.13;0.10;;;21.80;57.60;;;;;;5046461;28;20183;-46
2022/12/31 06:55:23;;;;;;;1.45;0.20;;;21.80;57.60;;;;;;5046652;28;20049;-45
2022/12/31 06:57:50;;;;;;;2.20;1.20;;;21.80;57.60;;;;;;5046140;28;20069;-47
2022/12/31 07:00:20;;;;;;;3.58;0.00;;;21.80;57.60;;;;;;5046432;28;20033;-50
2022/12/31 07:03:09;;;;;;;0.47;0.00;;;21.80;57.60;;;;;;5046206;28;20041;-46
2022/12/31 07:05:46;;;;;;;4.20;0.10;;;21.80;57.50;;;;;;5046571;28;20128;-45
2022/12/31 07:08:30;;;;;;;0.52;0.10;;;21.80;57.60;;;;;;5045976;28;20044;-49
2022/12/31 07:11:03;;;;;;;0.75;0.10;;;21.80;57.50;;;;;;5044831;28;20051;-47
2022/12/31 07:13:54;;;;;;;2.85;0.10;;;21.80;57.60;;;;;;5045944;28;20052;-44
2022/12/31 07:16:35;;;;;;;1.08;0.10;;;21.80;57.50;;;;;;5045613;28;20092;-49
2022/12/31 07:19:16;;;;;;;0.77;0.08;;;21.80;57.50;;;;;;5045997;28;20132;-50
2022/12/31 07:21:44;;;;;;;0.77;0.10;;;21.70;57.50;;;;;;5045716;28;20057;-45
2022/12/31 07:24:13;;;;;;;0.20;0.10;;;21.80;57.50;;;;;;5045407;28;20120;-47
2022/12/31 07:26:56;;;;;;;2.20;0.30;;;21.80;57.50;;;;;;5045182;28;20126;-50
2022/12/31 07:29:34;;;;;;;1.17;0.30;;;21.80;57.40;;;;;;5045960;28;20037;-47
2022/12/31 07:32:10;;;;;;;0.40;0.10;;;21.80;57.40;;;;;;5045390;28;20493;-48
2022/12/31 07:34:40;;;;;;;;;;;21.80;57.40;;;;;;5044476;28;20033;-51
2022/12/31 07:37:12;;;;;;;2.05;0.55;;;21.70;57.30;;;;;;5045455;28;19924;-50
2022/12/31 07:39:48;;;;;;;0.38;0.10;;;21.70;57.50;;;;;;5045343;28;20037;-47
2022/12/31 07:42:20;;;;;;;3.20;0.10;;;21.70;57.40;;;;;;5045531;28;20072;-48
2022/12/31 07:45:01;;;;;;;3.33;0.10;;;21.70;57.40;;;;;;5060105;28;20045;-46
2022/12/31 07:47:30;;;;;;;1.67;0.10;;;21.80;57.40;;;;;;5045047;28;20053;-46
2022/12/31 07:49:58;;;;;;;4.28;0.20;;;21.70;57.40;;;;;;5044686;28;20044;-46
2022/12/31 07:52:26;;;;;;;3.08;0.10;;;21.70;57.30;;;;;;5044477;28;20095;-47
2022/12/31 07:54:53;;;;;;;1.33;0.10;;;21.70;57.30;;;;;;5051973;28;20564;-55
2022/12/31 07:57:23;;;;;;;4.43;0.22;;;21.80;57.40;;;;;;5050563;28;20045;-50
2022/12/31 08:00:11;;;;;;;1.25;0.10;;;21.80;57.40;;;;;;5071486;28;20060;-47
2022/12/31 08:03:14;;;;;;;1.17;0.10;;;21.80;57.30;;;;;;5053075;28;20063;-47
2022/12/31 08:05:50;;;;;;;0.47;0.10;;;21.80;57.20;;;;;;5043953;28;20580;-48
2022/12/31 08:08:28;;;;;;;2.05;0.10;;;21.80;57.30;;;;;;5051210;28;20045;-47
2022/12/31 08:11:03;;;;;;;0.85;0.10;;;21.80;57.30;;;;;;5060070;28;20060;-48
2022/12/31 08:13:31;;;;;;;1.85;0.10;;;21.80;57.30;;;;;;5056183;28;20089;-48
2022/12/31 08:15:59;;;;;;;0.28;0.10;;;21.80;57.20;;;;;;5048895;28;20720;-48
2022/12/31 08:18:28;;;;;;;1.27;0.50;;;21.90;57.20;;;;;;5053195;28;20139;-49
2022/12/31 08:21:04;;;;;;;0.10;0.10;;;21.90;57.10;;;;;;5053342;28;20140;-57
2022/12/31 08:23:41;;;;;;;1.35;0.10;;;21.90;57.10;;;;;;5046898;28;20041;-51
2022/12/31 08:26:23;;;;;;;2.17;0.40;;;21.90;57.00;;;;;;5057114;28;20045;-54
2022/12/31 08:29:07;;;;;;;1.48;0.20;;;21.90;57.00;;;;;;5056362;28;20041;-48
2022/12/31 08:31:43;;;;;;;1.13;0.10;;;22.00;57.00;;;;;;5056153;28;20049;-48
2022/12/31 08:34:21;;;;;;;0.70;0.10;;;21.90;56.90;;;;;;5072125;28;20425;-46
2022/12/31 08:36:55;;;;;;;0.95;0.10;;;22.00;56.90;;;;;;5039713;28;20100;-52
2022/12/31 08:39:36;;;;;;;0.52;0.10;;;22.00;56.90;;;;;;5055717;28;20047;-51
2022/12/31 08:42:09;;;;;;;4.10;0.20;;;22.10;56.90;;;;;;5055659;28;20064;-51
2022/12/31 08:44:44;;;;;;;1.30;0.20;;;22.00;56.80;;;;;;5070675;28;20067;-50
2022/12/31 08:47:25;;;;;;;3.15;0.70;;;22.10;56.80;;;;;;5055979;28;20041;-48
2022/12/31 08:49:55;;;;;;;2.67;0.63;;;22.10;56.80;;;;;;5055584;28;20041;-50
2022/12/31 08:52:25;;;;;;;0.43;0.10;;;22.10;56.80;;;;;;5056261;28;20047;-50
2022/12/31 08:54:53;;;;;;;2.10;0.10;;;22.10;56.70;;;;;;5056469;28;20508;-46
2022/12/31 08:57:26;;;;;;;1.00;0.10;;;22.10;56.70;;;;;;5055664;28;20072;-51
2022/12/31 09:00:02;;;;;;;1.27;0.10;;;22.10;56.70;;;;;;5055731;28;20102;-47
2022/12/31 09:02:47;;;;;;;2.13;0.80;;;22.10;56.60;;;;;;5054471;28;20041;-49
2022/12/31 09:05:22;;;;;;;2.45;0.10;;;22.20;56.70;;;;;;5049186;28;20045;-49
2022/12/31 09:08:00;;;;;;;1.80;0.30;;;22.20;56.70;;;;;;5047085;28;20053;-49
2022/12/31 09:10:31;;;;;;;1.65;0.20;;;22.20;56.60;;;;;;5056807;28;20037;-47
2022/12/31 09:13:07;;;;;;;1.85;0.25;;;22.20;56.60;;;;;;5055767;28;20087;-51
2022/12/31 09:15:41;;;;;;;1.85;0.10;;;22.20;56.50;;;;;;5055738;28;20075;-52
2022/12/31 09:18:09;;;;;;;1.77;0.10;;;22.30;56.50;;;;;;5056145;28;20048;-53
2022/12/31 09:20:38;;;;;;;4.15;0.70;;;22.20;56.50;;;;;;5055598;28;20596;-50
2022/12/31 09:23:07;;;;;;;2.00;0.10;;;22.30;56.40;;;;;;5049394;28;20067;-52
2022/12/31 09:25:42;;;;;;;1.10;0.10;;;22.30;56.40;;;;;;5035634;28;20053;-52
2022/12/31 09:28:18;;;;;;;0.20;0.10;;;22.30;56.20;;;;;;5051397;28;20057;-49
2022/12/31 09:30:53;;;;;;;1.33;0.10;;;22.30;56.20;;;;;;5055711;28;20714;-56
2022/12/31 09:33:35;;;;;;;1.50;0.20;;;22.30;56.20;;;;;;5057586;28;20119;-48
2022/12/31 09:36:07;;;;;;;1.70;0.10;;;22.40;56.20;;;;;;5044367;28;20498;-49
2022/12/31 09:38:41;;;;;;;1.17;0.20;;;22.40;56.20;;;;;;5039170;28;20050;-50
2022/12/31 09:41:16;;;;;;;0.60;0.20;;;22.40;56.10;;;;;;5058675;28;20068;-50
2022/12/31 09:44:22;;;;;;;2.28;0.10;;;22.40;56.10;;;;;;5059378;28;20049;-51
2022/12/31 09:47:33;;;;;;;3.38;0.20;;;22.40;56.00;;;;;;5059150;28;20559;-50
2022/12/31 09:50:34;;;;;;;0.32;0.10;;;22.40;56.00;;;;;;5053104;28;20786;-50
2022/12/31 09:53:26;;;;;;;1.25;0.10;;;22.40;56.00;;;;;;4992501;28;20095;-50
2022/12/31 09:55:57;;;;;;;2.05;0.82;;;22.40;56.00;;;;;;4989969;28;20182;-50
2022/12/31 09:58:41;;;;;;;0.17;0.10;;;22.50;56.10;;;;;;4997008;28;20090;-48
2022/12/31 10:01:20;;;;;;;1.45;0.32;;;22.50;56.00;;;;;;4983507;28;20042;-48
2022/12/31 10:04:06;;;;;;;3.95;0.10;;;22.50;56.50;;;;;;4996578;28;20081;-48
2022/12/31 10:06:41;;;;;;;0.50;0.20;;;22.50;55.90;;;;;;4995098;28;20093;-50
2022/12/31 10:09:27;;;;;;;1.42;0.30;;;22.50;55.80;;;;;;4984148;28;20304;-52
2022/12/31 10:12:20;;;;;;;3.83;0.20;;;22.50;55.60;;;;;;4996045;28;20067;-51
2022/12/31 10:15:06;;;;;;;3.03;0.10;;;22.50;55.60;;;;;;4959705;28;20070;-49
2022/12/31 10:17:50;;;;;;;2.60;0.17;;;22.50;55.50;;;;;;4985853;28;20076;-51
2022/12/31 10:20:30;;;;;;;0.13;0.10;;;22.60;55.50;;;;;;4980013;28;20042;-55
2022/12/31 10:23:17;;;;;;;3.80;0.20;;;22.60;55.50;;;;;;4991711;28;20039;-50
2022/12/31 10:26:04;;;;;;;3.22;0.20;;;22.60;55.40;;;;;;4961314;28;20743;-50
2022/12/31 10:28:45;;;;;;;0.82;0.10;;;22.60;55.30;;;;;;4980508;28;20608;-49
2022/12/31 10:31:15;;;;;;;3.05;0.10;;;22.60;55.20;;;;;;5059089;28;20037;-50
2022/12/31 10:33:45;;;;;;;3.22;0.30;;;22.60;55.20;;;;;;5057776;28;20052;-54
2022/12/31 10:36:20;;;;;;;1.15;0.17;;;22.70;55.10;;;;;;5058335;28;20034;-50
2022/12/31 10:39:01;;;;;;;2.78;0.43;;;22.70;54.90;;;;;;5040881;28;20047;-54
2022/12/31 10:42:08;;;;;;;1.60;0.10;;;22.70;54.70;;;;;;5057720;28;20832;-56
2022/12/31 10:45:09;;;;;;;5.63;0.17;;;22.70;54.70;;;;;;5056617;28;20045;-46
2022/12/31 10:48:12;;;;;;;2.92;0.10;;;22.80;54.70;;;;;;5044175;28;20052;-49
2022/12/31 10:51:17;;;;;;;0.63;0.60;;;22.80;54.50;;;;;;5056752;28;20513;-50
2022/12/31 10:54:18;;;;;;;4.55;0.57;;;22.70;54.30;;;;;;4993612;28;20085;-51
2022/12/31 10:57:30;;;;;;;0.75;0.10;;;22.80;54.40;;;;;;4921128;29;20052;-49
2022/12/31 11:00:16;;;;;;;2.13;0.45;;;22.80;54.30;;;;;;4865544;29;20037;-50
2022/12/31 11:03:08;;;;;;;4.00;0.10;;;22.80;54.30;;;;;;4880079;29;20059;-46
2022/12/31 11:06:11;;;;;;;1.77;0.30;;;22.80;54.20;;;;;;4871868;29;20350;-48
2022/12/31 11:09:00;;;;;;;0.20;0.10;;;22.90;54.00;;;;;;4879419;29;20203;-47
2022/12/31 11:11:35;;;;;;;3.92;0.10;;;22.90;53.80;;;;;;4872554;29;20045;-50
2022/12/31 11:14:27;;;;;;;1.20;0.28;;;23.00;53.80;;;;;;4863878;29;20045;-47
2022/12/31 11:17:18;;;;;;;1.17;0.10;;;23.00;53.50;;;;;;4880021;29;20088;-47
2022/12/31 11:19:58;;;;;;;0.68;0.10;;;23.10;53.20;;;;;;4880486;29;20053;-48
2022/12/31 11:22:40;;;;;;;2.60;0.30;;;23.20;53.10;;;;;;4880304;29;20061;-49
2022/12/31 11:25:32;;;;;;;2.95;0.10;;;23.20;52.90;;;;;;4880241;29;20061;-47
2022/12/31 11:28:21;;;;;;;0.30;0.15;;;23.30;52.70;;;;;;4879507;29;20049;-50
2022/12/31 11:31:13;;;;;;;0.75;0.20;;;23.30;52.60;;;;;;4899925;29;20055;-52
2022/12/31 11:33:54;;;;;;;2.28;0.77;;;23.30;52.50;;;;;;4915754;29;20194;-49
2022/12/31 11:36:35;;;;;;;1.17;0.15;;;23.40;52.30;;;;;;4982216;28;20050;-48
2022/12/31 11:39:40;;;;;;;3.60;0.20;;;23.40;52.10;;;;;;4999648;28;20095;-50
2022/12/31 11:42:20;;;;;;;1.08;0.38;;;23.50;52.00;;;;;;4996846;28;20050;-48
2022/12/31 11:44:55;;;;;;;1.08;0.47;;;23.40;51.70;;;;;;4995615;28;20065;-49
2022/12/31 11:47:55;;;;;;;2.65;0.20;;;23.50;51.70;;;;;;5014162;28;20581;-49
2022/12/31 11:50:39;;;;;;;1.35;0.10;;;23.60;51.60;;;;;;5013910;28;20449;-47
2022/12/31 11:53:24;;;;;;;2.42;0.10;;;23.60;51.60;;;;;;5008018;28;20058;-49
2022/12/31 11:56:00;;;;;;;3.08;0.20;;;23.60;51.30;;;;;;5000793;28;20043;-47
2022/12/31 11:58:28;;;;;;;3.42;0.30;;;23.60;51.20;;;;;;5009694;28;20133;-49
2022/12/31 12:00:59;;;;;;;1.77;0.20;;;23.60;51.10;;;;;;4977188;28;20034;-50
2022/12/31 12:03:26;;;;;;;1.08;0.20;;;23.60;50.90;;;;;;4993588;28;20073;-53
2022/12/31 12:05:56;;;;;;;1.35;0.10;;;23.70;50.80;;;;;;5006556;28;20041;-55
2022/12/31 12:08:25;;;;;;;4.78;0.20;;;23.70;50.60;;;;;;5013481;28;20050;-50
2022/12/31 12:10:56;;;;;;;2.03;0.10;;;23.70;50.60;;;;;;5019700;28;20049;-50
2022/12/31 12:13:26;;;;;;;13.50;0.63;;;23.70;50.70;;;;;;5045540;28;20095;-51
2022/12/31 12:15:58;;;;;;;3.33;0.10;;;23.80;50.70;;;;;;5054900;28;20044;-50
2022/12/31 12:18:29;;;;;;;4.88;0.90;;;23.80;50.30;;;;;;5056657;28;20045;-50
2022/12/31 12:21:11;;;;;;;2.50;0.32;;;23.80;50.20;;;;;;5057224;28;20071;-53
2022/12/31 12:23:39;;;;;;;5.20;0.22;;;23.90;50.10;;;;;;5057040;28;20056;-49
2022/12/31 12:26:06;;;;;;;3.35;0.50;;;23.80;49.90;;;;;;5056973;28;20044;-52
2022/12/31 12:28:43;;;;;;;3.30;0.22;;;23.90;49.80;;;;;;5057114;28;20044;-49
2022/12/31 12:31:19;;;;;;;3.03;0.75;;;23.90;49.70;;;;;;5055315;28;20041;-49
2022/12/31 12:33:48;;;;;;;7.20;0.13;;;23.90;49.70;;;;;;5048518;28;20041;-62
2022/12/31 12:36:19;;;;;;;10.50;1.60;;;23.90;49.80;;;;;;5045049;28;20047;-61
2022/12/31 12:38:46;;;;;;;2.67;0.10;;;23.90;50.00;;;;;;5045696;28;20059;-62
2022/12/31 12:41:20;;;;;;;5.65;0.30;;;23.90;50.10;;;;;;5045354;28;20108;-61
2022/12/31 12:43:47;;;;;;;1.52;0.30;;;23.90;50.10;;;;;;5026992;28;20063;-61
2022/12/31 12:46:22;;;;;;;7.88;0.10;;;23.90;50.10;;;;;;5045057;28;20516;-64
2022/12/31 12:48:55;;;;;;;4.70;0.10;;;23.90;50.20;;;;;;5045019;28;20136;-67
2022/12/31 12:51:43;;;;;;;4.72;0.63;;;24.00;50.30;;;;;;5044695;28;20056;-60
2022/12/31 12:54:23;;;;;;;6.22;1.85;;;23.90;50.20;;;;;;5044518;28;20045;-56
2022/12/31 12:57:02;;;;;;;1.50;0.30;;;23.90;50.30;;;;;;5044758;28;20198;-58
2022/12/31 12:59:59;;;;;;;1.25;0.40;;;24.00;50.30;;;;;;5044355;28;20053;-58
2022/12/31 13:02:58;;;;;;;1.85;0.10;;;23.90;50.20;;;;;;5058832;28;20505;-57
2022/12/31 13:05:41;;;;;;;2.20;0.13;;;24.00;50.30;;;;;;5044541;28;20491;-58
2022/12/31 13:08:22;;;;;;;8.55;0.45;;;24.00;50.10;;;;;;5045719;28;20178;-59
2022/12/31 13:11:06;;;;;;;1.65;0.25;;;24.00;50.10;;;;;;5048380;28;20885;-59
2022/12/31 13:13:43;;;;;;;2.20;0.43;;;24.00;50.00;;;;;;5048094;28;20053;-59
2022/12/31 13:16:21;;;;;;;0.85;0.85;;;24.00;50.00;;;;;;5048169;28;20394;-61
2022/12/31 13:18:54;;;;;;;5.75;0.88;;;24.00;49.90;;;;;;5048298;28;20072;-61
2022/12/31 13:21:40;;;;;;;1.98;0.10;;;24.00;49.70;;;;;;5046070;28;20037;-63
2022/12/31 13:24:24;;;;;;;0.73;0.15;;;24.00;49.70;;;;;;5048136;28;20045;-63
2022/12/31 13:26:57;;;;;;;3.75;0.20;;;24.00;49.60;;;;;;5045155;28;20115;-56
2022/12/31 13:29:30;;;;;;;2.58;0.65;;;24.00;49.40;;;;;;5063414;28;20068;-59
2022/12/31 13:31:59;;;;;;;2.40;0.73;;;24.00;49.50;;;;;;5048458;28;20104;-60